Flight Track Log - Related Links

Times and Time Zones

All times are in EST time to prevent confusion due to time zone crossing. See the RPA3392 flight status page for this flight to view local times or setup timezone preferences in your user account.

Time Position Orientation Groundspeed Altitude Reporting Facility
EST Latitude Longitude Course Direction KTS MPH feet Rate Location/Type
Sat 08:17:18 AM 35.1911 -80.9508 354° North 163 188 1,400  Level Atlanta Center
Sat 08:18:07 AM 35.1536 -80.9522 182° South 185 213 2,400 1,800 Climbing Atlanta Center
Sat 08:19:08 AM 35.1108 -80.9919 217° Southwest 236 272 4,700 2,314 Climbing Atlanta Center
Sat 08:19:17 AM 35.1133 -81.0072 281° West 245 282 5,100 2,852 Climbing Atlanta Center
Sat 08:20:09 AM 35.1214 -81.0831 277° West 262 302 7,600 2,800 Climbing Atlanta Center
Sat 08:20:17 AM 35.1217 -81.0958 272° West 260 299 7,900 1,967 Climbing Atlanta Center
Sat 08:21:00 AM 35.6390 -81.0065 354° North  Level Estimated
Sat 08:21:10 AM 35.1297 -81.1742 277° West 266 306 9,600  Level Atlanta Center
Sat 08:21:17 AM 35.1322 -81.1817 292° West 275 316 9,900 1,612 Climbing Atlanta Center
Sat 08:22:00 AM 35.7241 -81.0181 354° North  Level Estimated
Sat 08:22:17 AM 35.2078 -81.2044 346° North 352 405 11,400  Level Atlanta Center
Sat 08:23:17 AM 35.2981 -81.1428 29° Northeast 369 425 14,200 2,550 Climbing Atlanta Center
Sat 08:24:17 AM 35.3931 -81.1039 18° North 364 419 16,500 1,950 Climbing Atlanta Center
Sat 08:25:17 AM 35.4958 -81.1231 351° North 348 400 18,100 1,900 Climbing Atlanta Center
Sat 08:27:17 AM 35.7078 -81.1694 350° North 371 427 22,200 1,900 Climbing Atlanta Center
Sat 08:28:17 AM 35.8167 -81.1936 350° North 384 442 23,800 1,600 Climbing Atlanta Center
Sat 08:29:17 AM 35.9300 -81.2178 350° North 396 456 25,400 1,500 Climbing Atlanta Center
Sat 08:30:17 AM 36.0325 -81.2400 350° North 404 465 26,800 1,500 Climbing Atlanta Center
Sat 08:31:17 AM 36.1458 -81.2669 349° North 411 473 28,400 1,300 Climbing Atlanta Center
Sat 08:32:17 AM 36.2611 -81.2914 350° North 416 479 29,400 1,000 Climbing Atlanta Center
Sat 08:33:17 AM 36.3786 -81.3183 350° North 416 479 30,400 938 Climbing Atlanta Center
Sat 08:34:57 AM 36.5767 -81.3617 350° North 434 499 31,900 596 Climbing Indianapolis Center
Sat 08:35:58 AM 36.6947 -81.3883 350° North 439 505 32,000 49 Climbing Indianapolis Center
Sat 08:36:59 AM 36.8153 -81.4150 350° North 447 514 32,000  Level Indianapolis Center
Sat 08:38:00 AM 36.9567 -81.4478 350° North 442 509 32,000  Level Indianapolis Center
Sat 08:39:01 AM 37.0678 -81.4725 350° North 440 506 32,000  Level Indianapolis Center
Sat 08:40:02 AM 37.1881 -81.5003 350° North 441 507 32,000  Level Indianapolis Center
Sat 08:41:02 AM 37.3092 -81.5222 352° North 441 507 32,000  Level Indianapolis Center
Sat 08:42:03 AM 37.4311 -81.5444 352° North 442 509 32,000  Level Indianapolis Center
Sat 08:43:04 AM 37.5497 -81.5667 352° North 434 499 32,000  Level Indianapolis Center
Sat 08:44:05 AM 37.6906 -81.5928 352° North 437 503 32,000  Level Indianapolis Center
Sat 08:45:06 AM 37.8100 -81.6144 352° North 434 499 32,000  Level Indianapolis Center
Sat 08:46:07 AM 37.9306 -81.6367 352° North 435 501 32,000  Level Indianapolis Center
Sat 08:47:08 AM 38.0511 -81.6586 352° North 436 502 32,000  Level Indianapolis Center
Sat 08:48:09 AM 38.1714 -81.6811 352° North 436 502 32,000  Level Indianapolis Center
Sat 08:49:09 AM 38.2936 -81.7053 351° North 441 507 32,000  Level Indianapolis Center
Sat 08:50:10 AM 38.4147 -81.7289 351° North 440 506 32,000  Level Indianapolis Center
Sat 08:51:11 AM 38.5378 -81.7522 352° North 441 507 32,000  Level Indianapolis Center
Sat 08:52:12 AM 38.6600 -81.7756 352° North 437 503 32,000  Level Indianapolis Center
Sat 08:53:13 AM 38.7794 -81.7975 352° North 427 491 32,000  Level Indianapolis Center
Sat 08:54:14 AM 38.8972 -81.8197 352° North 422 486 32,000  Level Indianapolis Center
Sat 08:55:15 AM 39.0153 -81.8428 351° North 425 489 32,000  Level Indianapolis Center
Sat 08:56:16 AM 39.1303 -81.8653 351° North 416 479 32,000  Level Indianapolis Center
Sat 08:57:17 AM 39.2458 -81.8872 352° North 419 482 32,000  Level Indianapolis Center
Sat 08:58:18 AM 39.3611 -81.9100 351° North 418 481 32,000 -98 Level Indianapolis Center
Sat 08:59:19 AM 39.4747 -81.9328 351° North 413 475 31,800 -1,230 Descending Indianapolis Center
Sat 09:00:20 AM 39.5886 -81.9542 352° North 413 475 29,500 -1,377 Descending Indianapolis Center
Sat 09:01:21 AM 39.7094 -81.9778 351° North 427 491 29,000 -246 Descending Indianapolis Center
Sat 09:02:22 AM 39.8289 -82.0014 351° North 435 501 29,000 -738 Level Indianapolis Center
Sat 09:03:23 AM 39.9453 -82.0244 351° North 428 493 27,500 -1,377 Descending Indianapolis Center
Sat 09:04:24 AM 40.0589 -82.0461 352° North 419 482 26,200 -1,636 Descending Indianapolis Center
Sat 09:05:24 AM 40.1708 -82.0689 351° North 412 474 24,200 -2,033 Descending Indianapolis Center
Sat 09:06:25 AM 40.2867 -82.0922 351° North 397 457 22,100 -1,967 Descending Indianapolis Center
Sat 09:07:26 AM 40.3897 -82.1125 351° North 374 430 20,200 -1,869 Descending Indianapolis Center
Sat 09:08:27 AM 40.4919 -82.0897 10° North 380 437 18,300 -1,918 Descending Indianapolis Center
Sat 09:09:28 AM 40.5858 -81.9997 36° Northeast 410 472 16,300 -1,967 Descending Indianapolis Center
Sat 09:10:29 AM 40.6747 -81.9106 37° Northeast 399 459 14,300 -1,918 Descending Indianapolis Center
Sat 09:11:30 AM 40.7619 -81.8236 37° Northeast 392 451 12,400 -1,805 Descending Indianapolis Center
Sat 09:12:32 AM 40.8436 -81.7403 38° Northeast 376 433 10,600 -1,171 Descending Indianapolis Center
Sat 09:13:33 AM 40.9211 -81.6625 37° Northeast 355 409 10,000 -238 Descending Indianapolis Center
Sat 09:14:38 AM 41.0169 -81.6481 North 289 333 10,100  Climbing Cleveland Center
Sat 09:14:55 AM 41.0419 -81.6539 350° North 301 346 10,000 -98 Descending Cleveland Center
Sat 09:15:39 AM 41.0967 -81.6747 344° North 293 337 10,000 -393 Level Cleveland Center
Sat 09:15:56 AM 41.1219 -81.6800 351° North 294 338 9,600 -1,500 Descending Cleveland Center
Sat 09:16:39 AM 41.1742 -81.6983 345° North 290 334 8,500 -1,672 Descending Cleveland Center
Sat 09:16:57 AM 41.2011 -81.7067 347° North 291 335 7,900 -1,254 Descending Cleveland Center
Sat 09:17:46 AM 41.2614 -81.7317 343° North 281 323 7,100 -885 Descending Cleveland Center
Sat 09:17:58 AM 41.2786 -81.7342 354° North 283 326 7,000 -247 Descending Cleveland Center
Sat 09:18:59 AM 41.3431 -81.7225 North 294 338 6,800 -771 Descending Cleveland Center
Sat 09:19:47 AM 41.4056 -81.6711 32° Northeast 293 337 5,600 -1,377 Descending Cleveland Center
Sat 09:20:00 AM 41.4136 -81.6639 34° Northeast 291 335 5,400 -1,433 Descending Cleveland Center
Sat 09:20:54 AM 41.4828 -81.6056 32° Northeast 282 325 4,000 -1,377 Descending Cleveland Center
Sat 09:21:01 AM 41.4811 -81.6078 225° Southwest 284 327 4,000 -100 Level Cleveland Center
Sat 09:21:54 AM 41.5369 -81.6114 357° North 193 222 3,900 -98 Descending Cleveland Center
Sat 09:22:02 AM 41.5356 -81.6103 149° Southeast 239 275 3,900 109 Level Cleveland Center
Sat 09:22:49 AM 41.5297 -81.6661 262° West 148 170 4,000 98 Climbing Cleveland Center
Sat 09:23:03 AM 41.5278 -81.6686 224° Southwest 186 214 4,000 -327 Level Cleveland Center
Sat 09:23:44 AM 41.5075 -81.7044 233° Southwest 161 185 3,700 -492 Descending Cleveland Center
Sat 09:24:04 AM 41.4989 -81.7133 218° Southwest 166 191 3,500 -900 Descending Cleveland Center
Sat 09:24:44 AM 41.4781 -81.7500 233° Southwest 147 169 2,800 -885 Descending Cleveland Center
Sat 09:25:05 AM 41.4717 -81.7597 229° Southwest 145 167 2,600 -590 Descending Cleveland Center
Sat 09:25:45 AM 41.4586 -81.7803 230° Southwest 101 116 2,200 -590 Descending Cleveland Center
Sat 09:26:06 AM 41.4511 -81.7897 223° Southwest 119 137 2,000 -659 Descending Cleveland Center
Sat 09:27:07 AM 41.4300 -81.8250 231° Southwest 119 137 1,300 -590 Descending Cleveland Center
Sat 09:28:08 AM 41.4061 -81.8611 229° Southwest 126 145 800 -492 Descending Cleveland Center

Login

Don't have an account? Register now (free) for customized features, flight alerts, and more!